createdAt,value
2023-03-26T00:02:06.940Z,8.46
2023-03-26T00:04:35.588Z,8.54
2023-03-26T00:07:05.108Z,8.56
2023-03-26T00:09:35.152Z,8.57
2023-03-26T00:12:03.887Z,8.54
2023-03-26T00:14:32.649Z,8.47
2023-03-26T00:17:01.313Z,8.41
2023-03-26T00:19:30.145Z,8.39
2023-03-26T00:21:58.767Z,8.44
2023-03-26T00:24:29.617Z,8.42
2023-03-26T00:26:59.648Z,8.36
2023-03-26T00:29:28.786Z,8.34
2023-03-26T00:31:57.403Z,8.33
2023-03-26T00:34:26.802Z,8.37
2023-03-26T00:36:55.729Z,8.36
2023-03-26T00:39:24.441Z,8.37
2023-03-26T00:41:54.255Z,8.34
2023-03-26T00:44:24.613Z,8.36
2023-03-26T00:46:53.353Z,8.33
2023-03-26T00:49:22.007Z,8.34
2023-03-26T00:51:51.145Z,8.28
2023-03-26T00:54:19.833Z,8.23
2023-03-26T00:56:48.479Z,8.26
2023-03-26T00:59:17.556Z,8.24
2023-03-26T01:01:47.482Z,8.25
2023-03-26T01:04:27.548Z,8.17
2023-03-26T01:06:58.459Z,8.18
2023-03-26T01:09:33.869Z,8.19
2023-03-26T01:12:03.924Z,8.18
2023-03-26T01:14:32.606Z,8.22
2023-03-26T01:17:05.935Z,8.08
2023-03-26T01:19:39.090Z,8.08
2023-03-26T01:22:11.112Z,8.05
2023-03-26T01:24:41.917Z,7.95
2023-03-26T01:27:19.107Z,8.03
2023-03-26T01:29:54.177Z,8.01
2023-03-26T01:32:37.649Z,8.07
2023-03-26T01:35:17.234Z,8.04
2023-03-26T01:37:58.441Z,8.09
2023-03-26T01:40:38.518Z,8.08
2023-03-26T01:43:11.959Z,8.13
2023-03-26T01:45:43.564Z,8.13
2023-03-26T01:48:13.154Z,8.16
2023-03-26T01:50:41.804Z,8.16
2023-03-26T01:53:12.576Z,8.20
2023-03-26T01:55:49.750Z,8.20
2023-03-26T01:58:25.792Z,8.35
2023-03-26T02:00:57.922Z,8.27
2023-03-26T02:03:29.250Z,8.22
2023-03-26T02:06:01.504Z,8.28
2023-03-26T02:08:35.636Z,8.26
2023-03-26T02:11:11.533Z,8.22
2023-03-26T02:13:41.431Z,8.21
2023-03-26T02:16:14.267Z,8.22
2023-03-26T02:18:43.766Z,8.18
2023-03-26T02:21:14.399Z,8.20
2023-03-26T02:23:46.874Z,8.21
2023-03-26T02:26:20.169Z,8.18
2023-03-26T02:28:48.791Z,8.15
2023-03-26T02:31:20.127Z,8.12
2023-03-26T02:33:49.544Z,8.15
2023-03-26T02:36:21.903Z,8.10
2023-03-26T02:38:51.496Z,8.12
2023-03-26T02:41:21.559Z,8.22
2023-03-26T02:43:50.404Z,8.23
2023-03-26T02:46:19.060Z,8.22
2023-03-26T02:48:47.834Z,8.20
2023-03-26T02:51:18.210Z,8.20
2023-03-26T02:53:47.418Z,8.18
2023-03-26T02:56:16.141Z,8.19
2023-03-26T02:58:46.897Z,8.18
2023-03-26T03:01:18.541Z,8.13
2023-03-26T03:03:48.412Z,8.14
2023-03-26T03:06:18.825Z,8.18
2023-03-26T03:08:47.770Z,8.20
2023-03-26T03:11:17.910Z,8.23
2023-03-26T03:13:47.981Z,8.19
2023-03-26T03:16:17.208Z,8.12
2023-03-26T03:18:46.504Z,8.00
2023-03-26T03:21:15.225Z,8.00
2023-03-26T03:23:43.814Z,8.04
2023-03-26T03:26:15.515Z,8.18
2023-03-26T03:28:45.066Z,8.08
2023-03-26T03:31:15.024Z,8.09
2023-03-26T03:33:44.001Z,8.12
2023-03-26T03:36:19.751Z,8.08
2023-03-26T03:38:49.991Z,8.09
2023-03-26T03:41:19.209Z,8.07
2023-03-26T03:43:47.846Z,8.02
2023-03-26T03:46:17.896Z,8.05
2023-03-26T03:48:49.595Z,7.95
2023-03-26T03:51:18.307Z,7.92
2023-03-26T03:53:47.470Z,7.90
2023-03-26T03:56:19.068Z,7.91
2023-03-26T03:58:47.934Z,7.90
2023-03-26T04:01:18.639Z,7.85
2023-03-26T04:03:47.464Z,7.79
2023-03-26T04:06:18.979Z,7.91
2023-03-26T04:08:47.758Z,8.01
2023-03-26T04:11:16.472Z,7.91
2023-03-26T04:13:45.512Z,7.92
2023-03-26T04:16:14.308Z,7.87
2023-03-26T04:18:45.203Z,7.74
2023-03-26T04:21:15.882Z,7.88
2023-03-26T04:23:45.239Z,7.77
2023-03-26T04:26:16.859Z,7.75
2023-03-26T04:28:48.299Z,7.72
2023-03-26T04:31:18.827Z,7.70
2023-03-26T04:33:48.872Z,7.73
2023-03-26T04:36:18.040Z,7.73
2023-03-26T04:38:49.154Z,7.62
2023-03-26T04:41:17.735Z,7.67
2023-03-26T04:43:50.674Z,7.85
2023-03-26T04:46:22.303Z,7.76
2023-03-26T04:48:52.583Z,7.83
2023-03-26T04:51:22.488Z,7.74
2023-03-26T04:53:53.745Z,7.63
2023-03-26T04:56:31.667Z,7.70
2023-03-26T04:59:02.533Z,7.71
2023-03-26T05:01:32.068Z,7.67
2023-03-26T05:04:02.076Z,7.55
2023-03-26T05:06:34.230Z,7.60
2023-03-26T05:09:03.224Z,7.61
2023-03-26T05:11:31.906Z,7.58
2023-03-26T05:14:00.548Z,7.58
2023-03-26T05:16:29.535Z,7.62
2023-03-26T05:18:58.299Z,7.52
2023-03-26T05:21:28.264Z,7.63
2023-03-26T05:23:56.862Z,7.68
2023-03-26T05:26:26.026Z,7.58
2023-03-26T05:28:54.632Z,7.67
2023-03-26T05:31:23.364Z,7.65
2023-03-26T05:33:52.112Z,7.66
2023-03-26T05:36:20.714Z,7.57
2023-03-26T05:38:52.343Z,7.53
2023-03-26T05:41:21.006Z,7.50
2023-03-26T05:43:49.615Z,7.56
2023-03-26T05:46:20.281Z,7.61
2023-03-26T05:48:48.982Z,7.66
2023-03-26T05:51:17.581Z,7.69
2023-03-26T05:53:46.243Z,7.69
2023-03-26T05:56:16.276Z,7.73
2023-03-26T05:58:45.034Z,7.69
2023-03-26T06:01:18.496Z,7.56
2023-03-26T06:03:47.460Z,7.55
2023-03-26T06:06:17.594Z,7.62
2023-03-26T06:08:48.834Z,7.60
2023-03-26T06:11:32.795Z,7.37
2023-03-26T06:14:01.784Z,7.45
2023-03-26T06:16:30.414Z,7.34
2023-03-26T06:18:59.155Z,7.37
2023-03-26T06:21:28.077Z,7.41
2023-03-26T06:23:56.695Z,7.46
2023-03-26T06:26:25.740Z,7.48
2023-03-26T06:28:55.837Z,7.49
2023-03-26T06:31:24.585Z,7.45
2023-03-26T06:33:53.475Z,7.52
2023-03-26T06:36:22.108Z,7.54
2023-03-26T06:38:50.791Z,7.59
2023-03-26T06:41:19.435Z,7.65
2023-03-26T06:43:48.205Z,7.65
2023-03-26T06:46:18.741Z,7.68
2023-03-26T06:48:47.578Z,7.72
2023-03-26T06:51:16.285Z,7.76
2023-03-26T06:53:44.941Z,7.81
2023-03-26T06:56:13.535Z,7.89
2023-03-26T06:58:42.180Z,7.85
2023-03-26T07:01:10.838Z,7.98
2023-03-26T07:03:41.060Z,7.89
2023-03-26T07:06:10.423Z,7.88
2023-03-26T07:08:39.060Z,7.90
2023-03-26T07:11:08.062Z,7.96
2023-03-26T07:13:37.599Z,7.91
2023-03-26T07:16:07.025Z,7.92
2023-03-26T07:18:35.686Z,7.88
2023-03-26T07:21:06.662Z,7.98
2023-03-26T07:23:36.209Z,8.02
2023-03-26T07:26:16.642Z,8.01
2023-03-26T07:29:04.939Z,8.03
2023-03-26T07:31:42.064Z,8.13
2023-03-26T07:34:18.660Z,8.13
2023-03-26T07:36:53.364Z,8.13
2023-03-26T07:39:33.752Z,8.13
2023-03-26T07:42:07.712Z,8.07
2023-03-26T07:44:47.543Z,8.13
2023-03-26T07:47:25.842Z,8.11
2023-03-26T07:49:55.776Z,8.13
2023-03-26T07:52:26.685Z,8.18
2023-03-26T07:54:55.843Z,8.17
2023-03-26T07:57:33.205Z,8.23
2023-03-26T08:00:08.227Z,8.22
2023-03-26T08:02:57.268Z,8.21
2023-03-26T08:05:28.018Z,8.25
2023-03-26T08:08:16.467Z,8.20
2023-03-26T08:10:59.610Z,8.27
2023-03-26T08:13:44.109Z,8.21
2023-03-26T08:16:25.501Z,8.22
2023-03-26T08:18:58.125Z,8.21
2023-03-26T08:21:29.509Z,8.20
2023-03-26T08:24:04.825Z,8.19
2023-03-26T08:26:38.540Z,8.04
2023-03-26T08:29:19.574Z,8.00
2023-03-26T08:31:49.516Z,8.00
2023-03-26T08:34:18.198Z,8.13
2023-03-26T08:36:47.528Z,8.10
2023-03-26T08:39:18.161Z,8.06
2023-03-26T08:42:17.430Z,8.00
2023-03-26T08:45:24.196Z,8.05
2023-03-26T08:48:34.813Z,7.98
2023-03-26T08:51:33.878Z,7.98
2023-03-26T08:54:19.079Z,8.09
2023-03-26T08:56:53.981Z,8.14
2023-03-26T09:00:08.886Z,8.19
2023-03-26T09:03:06.272Z,8.38
2023-03-26T09:05:54.840Z,8.41
2023-03-26T09:08:55.226Z,8.40
2023-03-26T09:11:47.095Z,8.53
2023-03-26T09:14:46.152Z,8.53
2023-03-26T09:17:44.752Z,8.58
2023-03-26T09:20:56.312Z,8.78
2023-03-26T09:24:06.601Z,8.90
2023-03-26T09:27:03.976Z,9.19
2023-03-26T09:30:16.824Z,9.32
2023-03-26T09:33:11.894Z,9.32
2023-03-26T09:35:52.833Z,9.49
2023-03-26T09:38:35.829Z,9.42
2023-03-26T09:41:11.007Z,9.56
2023-03-26T09:44:15.879Z,9.79
2023-03-26T09:46:50.125Z,10.04
2023-03-26T09:49:28.624Z,10.01
2023-03-26T09:52:13.183Z,10.29
2023-03-26T09:55:03.685Z,10.47
2023-03-26T09:57:53.602Z,10.67
2023-03-26T10:00:28.637Z,10.97
2023-03-26T10:03:12.897Z,11.10
2023-03-26T10:05:54.678Z,11.12
2023-03-26T10:08:32.703Z,11.27
2023-03-26T10:11:06.509Z,11.43
2023-03-26T10:13:42.237Z,11.12
2023-03-26T10:16:22.626Z,11.32
2023-03-26T10:19:05.319Z,11.45
2023-03-26T10:21:41.411Z,11.52
2023-03-26T10:24:27.838Z,11.22
2023-03-26T10:27:08.971Z,11.36
2023-03-26T10:29:51.974Z,11.42
2023-03-26T10:32:28.277Z,11.48
2023-03-26T10:35:22.372Z,11.68
2023-03-26T10:38:00.155Z,11.93
2023-03-26T10:40:34.022Z,11.90
2023-03-26T10:43:29.203Z,11.91
2023-03-26T10:46:14.731Z,12.03
2023-03-26T10:49:09.813Z,12.15
2023-03-26T10:51:48.565Z,11.98
2023-03-26T10:54:24.388Z,11.97
2023-03-26T10:56:53.616Z,12.24
2023-03-26T10:59:22.362Z,12.41
2023-03-26T11:01:57.278Z,12.37
2023-03-26T11:04:35.634Z,12.36
2023-03-26T11:07:11.257Z,12.07
2023-03-26T11:09:45.297Z,12.18
2023-03-26T11:12:26.791Z,12.26
2023-03-26T11:15:08.871Z,12.23
2023-03-26T11:17:44.818Z,12.27
2023-03-26T11:20:18.605Z,12.55
2023-03-26T11:22:57.906Z,12.97
2023-03-26T11:25:36.095Z,13.53
2023-03-26T11:28:13.988Z,13.65
2023-03-26T11:30:47.754Z,13.77
2023-03-26T11:33:19.446Z,13.51
2023-03-26T11:35:51.196Z,13.41
2023-03-26T11:38:24.368Z,13.25
2023-03-26T11:40:55.819Z,13.34
2023-03-26T11:43:27.423Z,12.75
2023-03-26T11:45:56.305Z,13.17
2023-03-26T11:48:28.577Z,13.23
2023-03-26T11:51:02.522Z,13.34
2023-03-26T11:53:34.648Z,13.48
2023-03-26T11:56:05.673Z,13.80
2023-03-26T11:58:38.306Z,13.93
2023-03-26T12:01:15.345Z,14.11
2023-03-26T12:03:44.201Z,13.97
2023-03-26T12:06:25.549Z,13.93
2023-03-26T12:08:56.927Z,14.06
2023-03-26T12:11:28.047Z,13.85
2023-03-26T12:14:00.200Z,13.90
2023-03-26T12:16:29.409Z,13.78
2023-03-26T12:19:03.897Z,13.51
2023-03-26T12:21:46.067Z,13.40
2023-03-26T12:24:28.396Z,13.34
2023-03-26T12:27:02.192Z,13.27
2023-03-26T12:29:34.287Z,13.54
2023-03-26T12:32:10.094Z,13.73
2023-03-26T12:34:39.369Z,13.84
2023-03-26T12:37:33.056Z,13.75
2023-03-26T12:40:17.142Z,14.01
2023-03-26T12:44:51.112Z,14.26
2023-03-26T12:45:44.278Z,14.43
2023-03-26T12:48:15.494Z,14.65
2023-03-26T12:50:57.068Z,14.24
2023-03-26T12:53:53.532Z,14.25
2023-03-26T12:56:27.369Z,14.47
2023-03-26T12:59:14.129Z,14.44
2023-03-26T13:01:50.397Z,14.38
2023-03-26T13:04:34.309Z,14.31
2023-03-26T13:07:06.458Z,14.29
2023-03-26T13:09:45.819Z,14.65
2023-03-26T13:12:25.132Z,15.00
2023-03-26T13:15:18.803Z,15.19
2023-03-26T13:17:55.503Z,15.47
2023-03-26T13:20:27.215Z,15.45
2023-03-26T13:22:59.433Z,15.41
2023-03-26T13:25:35.229Z,15.53
2023-03-26T13:28:21.694Z,15.70
2023-03-26T13:30:58.533Z,15.47
2023-03-26T13:33:43.381Z,14.96
2023-03-26T13:36:23.718Z,14.78
2023-03-26T13:39:07.524Z,14.78
2023-03-26T13:41:48.283Z,14.15
2023-03-26T13:44:24.827Z,14.36
2023-03-26T13:46:54.562Z,14.23
2023-03-26T13:49:29.055Z,14.31
2023-03-26T13:51:59.823Z,14.35
2023-03-26T13:54:31.819Z,14.25
2023-03-26T13:57:08.551Z,14.19
2023-03-26T13:59:40.552Z,14.18
2023-03-26T14:02:12.369Z,14.17
2023-03-26T14:04:43.766Z,14.16
2023-03-26T14:07:15.804Z,14.04
2023-03-26T14:09:48.432Z,13.93
2023-03-26T14:12:31.470Z,13.86
2023-03-26T14:15:02.210Z,13.80
2023-03-26T14:17:36.405Z,13.74
2023-03-26T14:20:50.187Z,13.61
2023-03-26T14:23:54.155Z,13.52
2023-03-26T14:26:30.549Z,13.30
2023-03-26T14:29:29.012Z,13.14
2023-03-26T14:32:07.708Z,12.85
2023-03-26T14:34:46.734Z,12.64
2023-03-26T14:37:34.832Z,12.33
2023-03-26T14:40:27.028Z,12.04
2023-03-26T14:43:05.674Z,11.62
2023-03-26T14:45:54.045Z,11.25
2023-03-26T14:48:42.796Z,11.04
2023-03-26T14:51:20.594Z,10.83
2023-03-26T14:53:51.607Z,10.65
2023-03-26T14:56:38.667Z,10.47
2023-03-26T14:59:54.743Z,10.28
2023-03-26T15:03:04.062Z,10.11
2023-03-26T15:05:49.430Z,10.08
2023-03-26T15:08:49.109Z,10.10
2023-03-26T15:11:25.735Z,10.16
2023-03-26T15:14:04.877Z,10.10
2023-03-26T15:17:10.016Z,10.12
2023-03-26T15:19:56.255Z,10.12
2023-03-26T15:22:40.389Z,10.02
2023-03-26T15:25:33.195Z,10.03
2023-03-26T15:28:35.444Z,10.08
2023-03-26T15:31:31.061Z,10.09
2023-03-26T15:34:30.332Z,10.04
2023-03-26T15:37:35.239Z,9.99
2023-03-26T15:40:36.206Z,9.85
2023-03-26T15:43:11.325Z,9.80
2023-03-26T15:45:42.029Z,9.65
2023-03-26T15:48:35.239Z,9.63
2023-03-26T15:51:26.613Z,9.48
2023-03-26T15:54:01.648Z,9.30
2023-03-26T15:56:49.066Z,9.31
2023-03-26T15:59:29.429Z,9.21
2023-03-26T16:02:03.929Z,9.21
2023-03-26T16:04:50.685Z,9.12
2023-03-26T16:07:47.010Z,8.91
2023-03-26T16:10:29.119Z,8.95
2023-03-26T16:13:18.989Z,8.97
2023-03-26T16:15:51.626Z,8.92
2023-03-26T16:18:27.113Z,8.87
2023-03-26T16:20:57.188Z,8.89
2023-03-26T16:23:29.397Z,8.50
2023-03-26T16:26:00.366Z,8.51
2023-03-26T16:28:35.456Z,8.50
2023-03-26T16:31:37.356Z,8.58
2023-03-26T16:34:23.476Z,8.32
2023-03-26T16:36:54.098Z,8.39
2023-03-26T16:39:24.508Z,8.49
2023-03-26T16:41:56.949Z,8.42
2023-03-26T16:44:44.346Z,8.47
2023-03-26T16:47:24.328Z,8.41
2023-03-26T16:50:08.516Z,8.43
2023-03-26T16:52:45.449Z,8.43
2023-03-26T16:55:20.620Z,8.46
2023-03-26T16:57:56.148Z,8.44
2023-03-26T17:00:37.095Z,8.46
2023-03-26T17:03:33.764Z,8.42
2023-03-26T17:06:06.355Z,8.43
2023-03-26T17:08:42.571Z,8.43
2023-03-26T17:11:22.267Z,8.42
2023-03-26T17:14:03.170Z,8.42
2023-03-26T17:16:36.625Z,8.36
2023-03-26T17:19:15.245Z,8.16
2023-03-26T17:21:52.775Z,8.15
2023-03-26T17:24:28.682Z,8.24
2023-03-26T17:27:02.394Z,8.10
2023-03-26T17:29:43.748Z,8.16
2023-03-26T17:32:15.105Z,8.24
2023-03-26T17:34:56.904Z,8.16
2023-03-26T17:37:47.770Z,8.20
2023-03-26T17:40:50.982Z,8.13
2023-03-26T17:43:43.359Z,7.96
2023-03-26T17:46:21.538Z,8.07
2023-03-26T17:48:58.108Z,7.92
2023-03-26T17:51:38.716Z,7.85
2023-03-26T17:54:09.289Z,7.87
2023-03-26T17:56:38.835Z,7.94
2023-03-26T17:59:11.341Z,7.95
2023-03-26T18:01:44.139Z,8.01
2023-03-26T18:04:18.710Z,8.04
2023-03-26T18:07:09.547Z,8.03
2023-03-26T18:09:49.613Z,8.08
2023-03-26T18:12:40.799Z,8.06
2023-03-26T18:15:22.956Z,8.08
2023-03-26T18:17:51.733Z,8.08
2023-03-26T18:20:24.414Z,8.11
2023-03-26T18:22:53.465Z,8.10
2023-03-26T18:25:26.175Z,8.10
2023-03-26T18:27:57.376Z,8.06
2023-03-26T18:30:26.945Z,7.91
2023-03-26T18:33:01.972Z,8.00
2023-03-26T18:35:42.180Z,8.05
2023-03-26T18:38:15.509Z,8.03
2023-03-26T18:40:44.993Z,8.02
2023-03-26T18:43:28.657Z,8.03
2023-03-26T18:46:04.317Z,7.98
2023-03-26T18:48:33.017Z,8.04
2023-03-26T18:51:05.864Z,8.02
2023-03-26T18:53:38.826Z,8.00
2023-03-26T18:56:20.529Z,8.04
2023-03-26T18:58:52.472Z,8.06
2023-03-26T19:01:25.966Z,8.02
2023-03-26T19:03:55.474Z,8.05
2023-03-26T19:06:25.976Z,7.95
2023-03-26T19:08:54.864Z,7.82
2023-03-26T19:11:23.754Z,7.87
2023-03-26T19:14:03.249Z,7.84
2023-03-26T19:16:36.340Z,7.93
2023-03-26T19:19:07.010Z,7.89
2023-03-26T19:21:37.507Z,7.92
2023-03-26T19:24:06.849Z,7.88
2023-03-26T19:26:36.489Z,7.75
2023-03-26T19:29:05.512Z,7.77
2023-03-26T19:31:35.663Z,7.73
2023-03-26T19:34:15.552Z,7.76
2023-03-26T19:36:58.053Z,7.80
2023-03-26T19:39:37.122Z,7.82
2023-03-26T19:42:07.376Z,7.83
2023-03-26T19:44:39.485Z,7.84
2023-03-26T19:47:13.230Z,7.82
2023-03-26T19:49:43.341Z,7.72
2023-03-26T19:52:15.889Z,7.72
2023-03-26T19:54:59.430Z,7.66
2023-03-26T19:57:30.742Z,7.61
2023-03-26T19:59:59.635Z,7.54
2023-03-26T20:02:29.033Z,7.60
2023-03-26T20:04:58.189Z,7.53
2023-03-26T20:07:35.643Z,7.58
2023-03-26T20:10:06.472Z,7.62
2023-03-26T20:12:35.154Z,7.57
2023-03-26T20:18:01.584Z,7.65
2023-03-26T20:20:30.687Z,7.63
2023-03-26T20:23:01.483Z,7.58
2023-03-26T20:25:32.757Z,7.56
2023-03-26T20:28:01.601Z,7.54
2023-03-26T20:33:12.789Z,7.51
2023-03-26T20:35:42.721Z,7.47
2023-03-26T20:38:12.844Z,7.45
2023-03-26T20:40:42.325Z,7.47
2023-03-26T20:43:13.630Z,7.45
2023-03-26T20:45:42.703Z,7.39
2023-03-26T20:48:11.967Z,7.42
2023-03-26T20:50:50.451Z,7.41
2023-03-26T20:53:21.223Z,7.40
2023-03-26T20:55:51.540Z,7.33
2023-03-26T20:58:31.170Z,6.95
2023-03-26T21:01:02.556Z,6.97
2023-03-26T21:03:31.307Z,6.90
2023-03-26T21:06:03.472Z,6.97
2023-03-26T21:08:37.056Z,7.01
2023-03-26T21:11:12.479Z,6.99
2023-03-26T21:13:44.854Z,7.02
2023-03-26T21:16:14.475Z,7.05
2023-03-26T21:18:43.686Z,7.03
2023-03-26T21:21:24.412Z,7.02
2023-03-26T21:24:00.231Z,7.01
2023-03-26T21:26:31.696Z,7.03
2023-03-26T21:29:00.848Z,7.08
2023-03-26T21:31:36.465Z,7.07
2023-03-26T21:34:06.206Z,7.04
2023-03-26T21:36:35.466Z,7.03
2023-03-26T21:39:06.409Z,7.12
2023-03-26T21:41:45.828Z,7.07
2023-03-26T21:44:15.245Z,7.04
2023-03-26T21:46:45.500Z,7.02
2023-03-26T21:49:16.677Z,7.04
2023-03-26T21:51:46.343Z,6.96
2023-03-26T21:54:27.953Z,6.94
2023-03-26T21:57:14.092Z,6.96
2023-03-26T21:59:47.759Z,7.00
2023-03-26T22:02:21.245Z,6.94
2023-03-26T22:04:53.196Z,6.93
2023-03-26T22:07:24.780Z,6.85
2023-03-26T22:09:55.335Z,6.90
2023-03-26T22:12:25.531Z,6.86
2023-03-26T22:14:54.205Z,6.91
2023-03-26T22:17:23.678Z,6.73
2023-03-26T22:19:52.319Z,6.83
2023-03-26T22:22:22.098Z,6.86
2023-03-26T22:24:50.739Z,6.87
2023-03-26T22:27:21.059Z,6.88
2023-03-26T22:29:50.106Z,6.91
2023-03-26T22:32:18.768Z,6.90
2023-03-26T22:34:47.339Z,6.86
2023-03-26T22:37:16.128Z,6.85
2023-03-26T22:39:44.780Z,6.82
2023-03-26T22:42:13.882Z,6.82
2023-03-26T22:44:43.873Z,6.82
2023-03-26T22:47:13.595Z,6.82
2023-03-26T22:49:42.330Z,6.85
2023-03-26T22:52:11.155Z,6.74
2023-03-26T22:54:39.794Z,6.78
2023-03-26T22:57:08.500Z,6.85
2023-03-26T22:59:37.191Z,6.82
2023-03-26T23:02:07.262Z,6.79
2023-03-26T23:04:37.536Z,6.80
2023-03-26T23:07:06.701Z,6.79
2023-03-26T23:09:36.521Z,6.80
2023-03-26T23:12:05.794Z,6.82
2023-03-26T23:14:34.438Z,6.81
2023-03-26T23:17:03.629Z,6.85
2023-03-26T23:19:34.620Z,6.89
2023-03-26T23:22:03.200Z,6.89
2023-03-26T23:24:31.770Z,6.89
2023-03-26T23:27:00.362Z,6.88
2023-03-26T23:29:30.019Z,6.85
2023-03-26T23:31:59.692Z,6.85
2023-03-26T23:34:28.440Z,6.86
2023-03-26T23:36:58.447Z,6.88
2023-03-26T23:39:28.553Z,6.86
2023-03-26T23:41:57.158Z,6.86
2023-03-26T23:44:25.750Z,6.88
2023-03-26T23:46:57.923Z,6.92
2023-03-26T23:49:26.893Z,6.87
2023-03-26T23:51:55.559Z,6.84
2023-03-26T23:54:25.614Z,6.87
2023-03-26T23:56:55.000Z,6.84
2023-03-26T23:59:23.684Z,6.81
